sensor_id;sensor_type;location;lat;lon;timestamp;P1;durP1;ratioP1;P2;durP2;ratioP2
20705;SDS011;10514;49.468;11.044;2023-07-24T00:00:14;9.23;;;5.88;;
20705;SDS011;10514;49.468;11.044;2023-07-24T00:02:40;10.75;;;6.60;;
20705;SDS011;10514;49.468;11.044;2023-07-24T00:05:06;8.15;;;5.25;;
20705;SDS011;10514;49.468;11.044;2023-07-24T00:07:32;11.32;;;6.03;;
20705;SDS011;10514;49.468;11.044;2023-07-24T00:09:58;11.23;;;5.63;;
20705;SDS011;10514;49.468;11.044;2023-07-24T00:12:24;9.52;;;5.97;;
20705;SDS011;10514;49.468;11.044;2023-07-24T00:14:51;10.35;;;4.93;;
20705;SDS011;10514;49.468;11.044;2023-07-24T00:17:17;10.25;;;5.70;;
20705;SDS011;10514;49.468;11.044;2023-07-24T00:19:43;14.40;;;5.70;;
20705;SDS011;10514;49.468;11.044;2023-07-24T00:22:09;10.48;;;6.07;;
20705;SDS011;10514;49.468;11.044;2023-07-24T00:24:35;9.43;;;5.15;;
20705;SDS011;10514;49.468;11.044;2023-07-24T00:27:00;9.32;;;5.75;;
20705;SDS011;10514;49.468;11.044;2023-07-24T00:29:27;9.23;;;5.65;;
20705;SDS011;10514;49.468;11.044;2023-07-24T00:31:53;10.63;;;5.47;;
20705;SDS011;10514;49.468;11.044;2023-07-24T00:34:18;11.85;;;5.72;;
20705;SDS011;10514;49.468;11.044;2023-07-24T00:36:44;10.65;;;5.97;;
20705;SDS011;10514;49.468;11.044;2023-07-24T00:39:09;9.63;;;5.45;;
20705;SDS011;10514;49.468;11.044;2023-07-24T00:41:35;9.40;;;5.70;;
20705;SDS011;10514;49.468;11.044;2023-07-24T00:44:01;10.68;;;5.30;;
20705;SDS011;10514;49.468;11.044;2023-07-24T00:46:26;11.52;;;5.60;;
20705;SDS011;10514;49.468;11.044;2023-07-24T00:48:56;8.43;;;5.47;;
20705;SDS011;10514;49.468;11.044;2023-07-24T00:51:23;12.25;;;5.68;;
20705;SDS011;10514;49.468;11.044;2023-07-24T00:53:48;11.68;;;5.07;;
20705;SDS011;10514;49.468;11.044;2023-07-24T00:56:14;13.48;;;6.53;;
20705;SDS011;10514;49.468;11.044;2023-07-24T00:58:40;9.43;;;5.53;;
20705;SDS011;10514;49.468;11.044;2023-07-24T01:01:06;9.30;;;5.95;;
20705;SDS011;10514;49.468;11.044;2023-07-24T01:03:33;10.10;;;6.10;;
20705;SDS011;10514;49.468;11.044;2023-07-24T01:06:01;11.57;;;5.75;;
20705;SDS011;10514;49.468;11.044;2023-07-24T01:08:27;7.97;;;5.45;;
20705;SDS011;10514;49.468;11.044;2023-07-24T01:10:53;12.38;;;6.22;;
20705;SDS011;10514;49.468;11.044;2023-07-24T01:13:24;8.88;;;5.63;;
20705;SDS011;10514;49.468;11.044;2023-07-24T01:15:59;10.23;;;5.80;;
20705;SDS011;10514;49.468;11.044;2023-07-24T01:18:28;9.82;;;5.93;;
20705;SDS011;10514;49.468;11.044;2023-07-24T01:20:56;10.48;;;6.05;;
20705;SDS011;10514;49.468;11.044;2023-07-24T01:23:38;11.45;;;5.78;;
20705;SDS011;10514;49.468;11.044;2023-07-24T01:26:06;10.27;;;6.47;;
20705;SDS011;10514;49.468;11.044;2023-07-24T01:28:32;11.57;;;6.70;;
20705;SDS011;10514;49.468;11.044;2023-07-24T01:30:58;11.50;;;7.07;;
20705;SDS011;10514;49.468;11.044;2023-07-24T01:33:23;12.10;;;6.68;;
20705;SDS011;10514;49.468;11.044;2023-07-24T01:35:57;10.18;;;6.30;;
20705;SDS011;10514;49.468;11.044;2023-07-24T01:38:24;16.65;;;6.78;;
20705;SDS011;10514;49.468;11.044;2023-07-24T01:40:53;11.75;;;6.78;;
20705;SDS011;10514;49.468;11.044;2023-07-24T01:43:19;10.00;;;5.85;;
20705;SDS011;10514;49.468;11.044;2023-07-24T01:45:45;11.50;;;6.57;;
20705;SDS011;10514;49.468;11.044;2023-07-24T01:48:11;9.02;;;5.97;;
20705;SDS011;10514;49.468;11.044;2023-07-24T01:50:37;12.02;;;6.18;;
20705;SDS011;10514;49.468;11.044;2023-07-24T01:53:02;11.35;;;6.72;;
20705;SDS011;10514;49.468;11.044;2023-07-24T01:55:28;10.73;;;6.88;;
20705;SDS011;10514;49.468;11.044;2023-07-24T01:57:54;11.63;;;7.13;;
20705;SDS011;10514;49.468;11.044;2023-07-24T02:00:19;11.18;;;6.38;;
20705;SDS011;10514;49.468;11.044;2023-07-24T02:02:45;9.10;;;6.35;;
20705;SDS011;10514;49.468;11.044;2023-07-24T02:05:11;9.70;;;6.20;;
20705;SDS011;10514;49.468;11.044;2023-07-24T02:07:36;10.15;;;6.15;;
20705;SDS011;10514;49.468;11.044;2023-07-24T02:10:02;13.10;;;6.63;;
20705;SDS011;10514;49.468;11.044;2023-07-24T02:12:28;9.15;;;5.75;;
20705;SDS011;10514;49.468;11.044;2023-07-24T02:14:53;13.82;;;6.72;;
20705;SDS011;10514;49.468;11.044;2023-07-24T02:17:20;10.40;;;6.75;;
20705;SDS011;10514;49.468;11.044;2023-07-24T02:19:46;10.90;;;6.53;;
20705;SDS011;10514;49.468;11.044;2023-07-24T02:22:12;10.98;;;6.97;;
20705;SDS011;10514;49.468;11.044;2023-07-24T02:24:38;11.30;;;6.82;;
20705;SDS011;10514;49.468;11.044;2023-07-24T02:27:04;13.52;;;7.13;;
20705;SDS011;10514;49.468;11.044;2023-07-24T02:29:30;14.90;;;6.35;;
20705;SDS011;10514;49.468;11.044;2023-07-24T02:31:57;12.02;;;7.30;;
20705;SDS011;10514;49.468;11.044;2023-07-24T02:34:23;12.95;;;7.82;;
20705;SDS011;10514;49.468;11.044;2023-07-24T02:36:51;13.80;;;7.00;;
20705;SDS011;10514;49.468;11.044;2023-07-24T02:39:18;10.40;;;6.35;;
20705;SDS011;10514;49.468;11.044;2023-07-24T02:41:44;11.35;;;7.07;;
20705;SDS011;10514;49.468;11.044;2023-07-24T02:44:10;13.38;;;7.10;;
20705;SDS011;10514;49.468;11.044;2023-07-24T02:46:36;17.92;;;8.52;;
20705;SDS011;10514;49.468;11.044;2023-07-24T02:49:01;12.02;;;7.47;;
20705;SDS011;10514;49.468;11.044;2023-07-24T02:51:27;12.18;;;7.05;;
20705;SDS011;10514;49.468;11.044;2023-07-24T02:53:53;10.80;;;6.50;;
20705;SDS011;10514;49.468;11.044;2023-07-24T02:56:20;12.30;;;7.60;;
20705;SDS011;10514;49.468;11.044;2023-07-24T02:58:45;12.90;;;7.57;;
20705;SDS011;10514;49.468;11.044;2023-07-24T03:01:11;9.02;;;6.20;;
20705;SDS011;10514;49.468;11.044;2023-07-24T03:03:39;10.55;;;6.13;;
20705;SDS011;10514;49.468;11.044;2023-07-24T03:06:05;11.90;;;6.97;;
20705;SDS011;10514;49.468;11.044;2023-07-24T03:08:31;12.45;;;7.22;;
20705;SDS011;10514;49.468;11.044;2023-07-24T03:10:57;12.98;;;7.45;;
20705;SDS011;10514;49.468;11.044;2023-07-24T03:13:23;12.77;;;8.00;;
20705;SDS011;10514;49.468;11.044;2023-07-24T03:15:55;15.30;;;7.90;;
20705;SDS011;10514;49.468;11.044;2023-07-24T03:18:22;11.98;;;7.20;;
20705;SDS011;10514;49.468;11.044;2023-07-24T03:20:48;12.13;;;7.95;;
20705;SDS011;10514;49.468;11.044;2023-07-24T03:23:14;12.52;;;7.20;;
20705;SDS011;10514;49.468;11.044;2023-07-24T03:25:39;14.48;;;7.90;;
20705;SDS011;10514;49.468;11.044;2023-07-24T03:28:05;11.27;;;7.53;;
20705;SDS011;10514;49.468;11.044;2023-07-24T03:30:31;13.68;;;7.93;;
20705;SDS011;10514;49.468;11.044;2023-07-24T03:32:57;14.30;;;7.90;;
20705;SDS011;10514;49.468;11.044;2023-07-24T03:35:23;12.25;;;7.05;;
20705;SDS011;10514;49.468;11.044;2023-07-24T03:37:49;11.82;;;7.70;;
20705;SDS011;10514;49.468;11.044;2023-07-24T03:40:15;11.00;;;6.57;;
20705;SDS011;10514;49.468;11.044;2023-07-24T03:42:41;11.75;;;7.28;;
20705;SDS011;10514;49.468;11.044;2023-07-24T03:45:07;9.82;;;7.10;;
20705;SDS011;10514;49.468;11.044;2023-07-24T03:47:33;14.88;;;7.97;;
20705;SDS011;10514;49.468;11.044;2023-07-24T03:49:58;11.82;;;7.32;;
20705;SDS011;10514;49.468;11.044;2023-07-24T03:52:24;11.95;;;7.28;;
20705;SDS011;10514;49.468;11.044;2023-07-24T03:54:51;13.23;;;7.35;;
20705;SDS011;10514;49.468;11.044;2023-07-24T03:57:17;12.10;;;7.93;;
20705;SDS011;10514;49.468;11.044;2023-07-24T03:59:42;11.77;;;7.75;;
20705;SDS011;10514;49.468;11.044;2023-07-24T04:02:08;15.57;;;8.13;;
20705;SDS011;10514;49.468;11.044;2023-07-24T04:04:34;12.70;;;7.63;;
20705;SDS011;10514;49.468;11.044;2023-07-24T04:07:00;11.43;;;7.22;;
20705;SDS011;10514;49.468;11.044;2023-07-24T04:09:26;13.30;;;8.38;;
20705;SDS011;10514;49.468;11.044;2023-07-24T04:11:52;14.75;;;7.60;;
20705;SDS011;10514;49.468;11.044;2023-07-24T04:14:17;12.43;;;7.70;;
20705;SDS011;10514;49.468;11.044;2023-07-24T04:16:43;13.02;;;8.05;;
20705;SDS011;10514;49.468;11.044;2023-07-24T04:19:09;11.90;;;8.25;;
20705;SDS011;10514;49.468;11.044;2023-07-24T04:21:35;12.25;;;7.53;;
20705;SDS011;10514;49.468;11.044;2023-07-24T04:24:01;11.50;;;7.43;;
20705;SDS011;10514;49.468;11.044;2023-07-24T04:26:27;11.25;;;7.72;;
20705;SDS011;10514;49.468;11.044;2023-07-24T04:28:53;12.15;;;8.00;;
20705;SDS011;10514;49.468;11.044;2023-07-24T04:31:18;12.43;;;7.80;;
20705;SDS011;10514;49.468;11.044;2023-07-24T04:33:44;12.50;;;8.13;;
20705;SDS011;10514;49.468;11.044;2023-07-24T04:36:09;12.95;;;7.88;;
20705;SDS011;10514;49.468;11.044;2023-07-24T04:38:35;11.70;;;7.78;;
20705;SDS011;10514;49.468;11.044;2023-07-24T04:41:01;14.15;;;8.18;;
20705;SDS011;10514;49.468;11.044;2023-07-24T04:43:27;14.85;;;7.55;;
20705;SDS011;10514;49.468;11.044;2023-07-24T04:45:53;13.70;;;7.63;;
20705;SDS011;10514;49.468;11.044;2023-07-24T04:48:19;10.77;;;7.40;;
20705;SDS011;10514;49.468;11.044;2023-07-24T04:50:45;13.65;;;7.63;;
20705;SDS011;10514;49.468;11.044;2023-07-24T04:53:10;14.13;;;8.68;;
20705;SDS011;10514;49.468;11.044;2023-07-24T04:55:36;14.25;;;7.90;;
20705;SDS011;10514;49.468;11.044;2023-07-24T04:58:02;13.32;;;8.05;;
20705;SDS011;10514;49.468;11.044;2023-07-24T05:00:28;11.48;;;6.95;;
20705;SDS011;10514;49.468;11.044;2023-07-24T05:02:54;12.13;;;7.35;;
20705;SDS011;10514;49.468;11.044;2023-07-24T05:05:20;13.65;;;7.10;;
20705;SDS011;10514;49.468;11.044;2023-07-24T05:07:46;11.77;;;7.20;;
20705;SDS011;10514;49.468;11.044;2023-07-24T05:10:11;13.70;;;8.88;;
20705;SDS011;10514;49.468;11.044;2023-07-24T05:12:40;12.18;;;7.50;;
20705;SDS011;10514;49.468;11.044;2023-07-24T05:15:06;11.40;;;6.95;;
20705;SDS011;10514;49.468;11.044;2023-07-24T05:17:32;10.77;;;7.43;;
20705;SDS011;10514;49.468;11.044;2023-07-24T05:19:58;16.42;;;7.53;;
20705;SDS011;10514;49.468;11.044;2023-07-24T05:22:24;14.02;;;7.40;;
20705;SDS011;10514;49.468;11.044;2023-07-24T05:24:50;12.15;;;7.38;;
20705;SDS011;10514;49.468;11.044;2023-07-24T05:27:15;12.77;;;8.30;;
20705;SDS011;10514;49.468;11.044;2023-07-24T05:29:41;12.27;;;7.70;;
20705;SDS011;10514;49.468;11.044;2023-07-24T05:32:07;13.35;;;7.65;;
20705;SDS011;10514;49.468;11.044;2023-07-24T05:34:32;13.95;;;8.38;;
20705;SDS011;10514;49.468;11.044;2023-07-24T05:36:58;12.90;;;7.18;;
20705;SDS011;10514;49.468;11.044;2023-07-24T05:39:23;13.65;;;8.52;;
20705;SDS011;10514;49.468;11.044;2023-07-24T05:41:49;11.77;;;7.55;;
20705;SDS011;10514;49.468;11.044;2023-07-24T05:44:14;13.13;;;7.65;;
20705;SDS011;10514;49.468;11.044;2023-07-24T05:46:40;11.95;;;7.30;;
20705;SDS011;10514;49.468;11.044;2023-07-24T05:49:05;13.73;;;7.32;;
20705;SDS011;10514;49.468;11.044;2023-07-24T05:51:31;11.00;;;6.53;;
20705;SDS011;10514;49.468;11.044;2023-07-24T05:53:57;13.90;;;7.82;;
20705;SDS011;10514;49.468;11.044;2023-07-24T05:56:22;13.07;;;7.35;;
20705;SDS011;10514;49.468;11.044;2023-07-24T05:58:49;14.43;;;7.45;;
20705;SDS011;10514;49.468;11.044;2023-07-24T06:01:14;13.98;;;8.30;;
20705;SDS011;10514;49.468;11.044;2023-07-24T06:03:40;13.65;;;7.70;;
20705;SDS011;10514;49.468;11.044;2023-07-24T06:06:06;12.27;;;7.40;;
20705;SDS011;10514;49.468;11.044;2023-07-24T06:08:32;12.07;;;7.55;;
20705;SDS011;10514;49.468;11.044;2023-07-24T06:10:58;11.95;;;8.00;;
20705;SDS011;10514;49.468;11.044;2023-07-24T06:13:23;10.43;;;6.97;;
20705;SDS011;10514;49.468;11.044;2023-07-24T06:15:50;12.23;;;7.97;;
20705;SDS011;10514;49.468;11.044;2023-07-24T06:18:16;12.23;;;7.45;;
20705;SDS011;10514;49.468;11.044;2023-07-24T06:20:42;12.60;;;7.13;;
20705;SDS011;10514;49.468;11.044;2023-07-24T06:23:08;18.42;;;6.82;;
20705;SDS011;10514;49.468;11.044;2023-07-24T06:25:34;10.95;;;6.75;;
20705;SDS011;10514;49.468;11.044;2023-07-24T06:27:59;11.05;;;6.55;;
20705;SDS011;10514;49.468;11.044;2023-07-24T06:30:25;9.77;;;6.47;;
20705;SDS011;10514;49.468;11.044;2023-07-24T06:32:51;8.77;;;6.22;;
20705;SDS011;10514;49.468;11.044;2023-07-24T06:35:17;11.32;;;7.15;;
20705;SDS011;10514;49.468;11.044;2023-07-24T06:37:43;11.05;;;6.55;;
20705;SDS011;10514;49.468;11.044;2023-07-24T06:40:09;11.30;;;6.68;;
20705;SDS011;10514;49.468;11.044;2023-07-24T06:42:35;13.27;;;8.00;;
20705;SDS011;10514;49.468;11.044;2023-07-24T06:45:01;10.38;;;7.05;;
20705;SDS011;10514;49.468;11.044;2023-07-24T06:47:27;14.00;;;7.47;;
20705;SDS011;10514;49.468;11.044;2023-07-24T06:49:53;14.82;;;7.72;;
20705;SDS011;10514;49.468;11.044;2023-07-24T06:52:19;11.40;;;7.13;;
20705;SDS011;10514;49.468;11.044;2023-07-24T06:54:45;11.52;;;7.18;;
20705;SDS011;10514;49.468;11.044;2023-07-24T06:57:11;11.50;;;7.18;;
20705;SDS011;10514;49.468;11.044;2023-07-24T06:59:37;9.32;;;7.10;;
20705;SDS011;10514;49.468;11.044;2023-07-24T07:02:03;10.25;;;7.35;;
20705;SDS011;10514;49.468;11.044;2023-07-24T07:04:29;12.57;;;7.63;;
20705;SDS011;10514;49.468;11.044;2023-07-24T07:06:55;10.45;;;6.95;;
20705;SDS011;10514;49.468;11.044;2023-07-24T07:09:21;14.63;;;6.75;;
20705;SDS011;10514;49.468;11.044;2023-07-24T07:11:47;14.27;;;7.20;;
20705;SDS011;10514;49.468;11.044;2023-07-24T07:14:13;12.25;;;7.13;;
20705;SDS011;10514;49.468;11.044;2023-07-24T07:16:39;11.65;;;7.07;;
20705;SDS011;10514;49.468;11.044;2023-07-24T07:19:05;14.07;;;6.82;;
20705;SDS011;10514;49.468;11.044;2023-07-24T07:21:34;14.18;;;7.72;;
20705;SDS011;10514;49.468;11.044;2023-07-24T07:24:01;14.40;;;7.32;;
20705;SDS011;10514;49.468;11.044;2023-07-24T07:26:27;11.98;;;7.50;;
20705;SDS011;10514;49.468;11.044;2023-07-24T07:28:54;13.07;;;6.95;;
20705;SDS011;10514;49.468;11.044;2023-07-24T07:31:20;12.70;;;7.85;;
20705;SDS011;10514;49.468;11.044;2023-07-24T07:33:47;10.30;;;6.80;;
20705;SDS011;10514;49.468;11.044;2023-07-24T07:36:13;12.20;;;7.93;;
20705;SDS011;10514;49.468;11.044;2023-07-24T07:38:39;11.32;;;7.50;;
20705;SDS011;10514;49.468;11.044;2023-07-24T07:41:05;10.57;;;7.15;;
20705;SDS011;10514;49.468;11.044;2023-07-24T07:43:31;15.02;;;7.05;;
20705;SDS011;10514;49.468;11.044;2023-07-24T07:45:57;14.65;;;8.18;;
20705;SDS011;10514;49.468;11.044;2023-07-24T07:48:24;13.65;;;7.07;;
20705;SDS011;10514;49.468;11.044;2023-07-24T07:50:53;13.02;;;6.70;;
20705;SDS011;10514;49.468;11.044;2023-07-24T07:53:19;13.20;;;7.93;;
20705;SDS011;10514;49.468;11.044;2023-07-24T07:55:45;13.32;;;7.18;;
20705;SDS011;10514;49.468;11.044;2023-07-24T07:58:11;12.50;;;7.60;;
20705;SDS011;10514;49.468;11.044;2023-07-24T08:00:37;14.15;;;6.90;;
20705;SDS011;10514;49.468;11.044;2023-07-24T08:03:04;10.52;;;7.03;;
20705;SDS011;10514;49.468;11.044;2023-07-24T08:05:30;12.43;;;7.43;;
20705;SDS011;10514;49.468;11.044;2023-07-24T08:07:57;11.13;;;7.75;;
20705;SDS011;10514;49.468;11.044;2023-07-24T08:10:23;11.05;;;7.43;;
20705;SDS011;10514;49.468;11.044;2023-07-24T08:12:49;13.48;;;8.00;;
20705;SDS011;10514;49.468;11.044;2023-07-24T08:15:15;10.82;;;7.03;;
20705;SDS011;10514;49.468;11.044;2023-07-24T08:17:40;12.05;;;7.07;;
20705;SDS011;10514;49.468;11.044;2023-07-24T08:20:06;10.60;;;7.40;;
20705;SDS011;10514;49.468;11.044;2023-07-24T08:22:32;14.55;;;8.02;;
20705;SDS011;10514;49.468;11.044;2023-07-24T08:24:58;20.27;;;7.30;;
20705;SDS011;10514;49.468;11.044;2023-07-24T08:27:24;11.10;;;6.95;;
20705;SDS011;10514;49.468;11.044;2023-07-24T08:29:51;14.25;;;7.80;;
20705;SDS011;10514;49.468;11.044;2023-07-24T08:32:18;11.02;;;7.22;;
20705;SDS011;10514;49.468;11.044;2023-07-24T08:34:43;13.10;;;7.35;;
20705;SDS011;10514;49.468;11.044;2023-07-24T08:37:10;12.50;;;7.70;;
20705;SDS011;10514;49.468;11.044;2023-07-24T08:39:36;14.90;;;7.95;;
20705;SDS011;10514;49.468;11.044;2023-07-24T08:42:12;11.75;;;7.68;;
20705;SDS011;10514;49.468;11.044;2023-07-24T08:44:39;13.63;;;7.13;;
20705;SDS011;10514;49.468;11.044;2023-07-24T08:47:06;13.30;;;8.07;;
20705;SDS011;10514;49.468;11.044;2023-07-24T08:49:34;12.13;;;8.00;;
20705;SDS011;10514;49.468;11.044;2023-07-24T08:52:00;18.60;;;7.82;;
20705;SDS011;10514;49.468;11.044;2023-07-24T08:54:26;15.77;;;8.32;;
20705;SDS011;10514;49.468;11.044;2023-07-24T08:56:53;11.85;;;8.23;;
20705;SDS011;10514;49.468;11.044;2023-07-24T08:59:20;16.17;;;7.78;;
20705;SDS011;10514;49.468;11.044;2023-07-24T09:01:46;11.95;;;7.13;;
20705;SDS011;10514;49.468;11.044;2023-07-24T09:04:12;10.75;;;7.72;;
20705;SDS011;10514;49.468;11.044;2023-07-24T09:06:38;13.32;;;9.23;;
20705;SDS011;10514;49.468;11.044;2023-07-24T09:09:14;14.90;;;7.80;;
20705;SDS011;10514;49.468;11.044;2023-07-24T09:11:47;13.45;;;7.68;;
20705;SDS011;10514;49.468;11.044;2023-07-24T09:16:48;15.25;;;8.18;;
20705;SDS011;10514;49.468;11.044;2023-07-24T09:19:18;12.35;;;7.72;;
20705;SDS011;10514;49.468;11.044;2023-07-24T09:21:44;11.20;;;7.43;;
20705;SDS011;10514;49.468;11.044;2023-07-24T09:24:11;12.00;;;8.27;;
20705;SDS011;10514;49.468;11.044;2023-07-24T09:26:50;13.70;;;8.38;;
20705;SDS011;10514;49.468;11.044;2023-07-24T09:29:17;13.30;;;7.97;;
20705;SDS011;10514;49.468;11.044;2023-07-24T09:31:44;14.13;;;8.93;;
20705;SDS011;10514;49.468;11.044;2023-07-24T09:34:14;12.82;;;8.13;;
20705;SDS011;10514;49.468;11.044;2023-07-24T09:36:41;16.25;;;7.97;;
20705;SDS011;10514;49.468;11.044;2023-07-24T09:39:07;12.65;;;8.45;;
20705;SDS011;10514;49.468;11.044;2023-07-24T09:41:35;16.30;;;8.18;;
20705;SDS011;10514;49.468;11.044;2023-07-24T09:44:01;13.23;;;8.40;;
20705;SDS011;10514;49.468;11.044;2023-07-24T09:46:27;12.93;;;8.05;;
20705;SDS011;10514;49.468;11.044;2023-07-24T09:48:55;16.15;;;8.35;;
20705;SDS011;10514;49.468;11.044;2023-07-24T09:51:22;14.68;;;8.45;;
20705;SDS011;10514;49.468;11.044;2023-07-24T09:56:44;13.75;;;7.90;;
20705;SDS011;10514;49.468;11.044;2023-07-24T09:59:10;11.90;;;8.27;;
20705;SDS011;10514;49.468;11.044;2023-07-24T10:01:37;13.43;;;8.68;;
20705;SDS011;10514;49.468;11.044;2023-07-24T10:04:03;11.38;;;8.02;;
20705;SDS011;10514;49.468;11.044;2023-07-24T10:06:29;13.82;;;8.80;;
20705;SDS011;10514;49.468;11.044;2023-07-24T10:08:56;13.68;;;7.82;;
20705;SDS011;10514;49.468;11.044;2023-07-24T10:11:23;14.80;;;8.25;;
20705;SDS011;10514;49.468;11.044;2023-07-24T10:13:50;11.18;;;7.70;;
20705;SDS011;10514;49.468;11.044;2023-07-24T10:16:16;12.75;;;8.18;;
20705;SDS011;10514;49.468;11.044;2023-07-24T10:18:43;12.15;;;7.43;;
20705;SDS011;10514;49.468;11.044;2023-07-24T10:21:10;13.48;;;8.20;;
20705;SDS011;10514;49.468;11.044;2023-07-24T10:23:37;12.00;;;7.53;;
20705;SDS011;10514;49.468;11.044;2023-07-24T10:26:08;12.05;;;7.35;;
20705;SDS011;10514;49.468;11.044;2023-07-24T10:28:34;11.80;;;8.05;;
20705;SDS011;10514;49.468;11.044;2023-07-24T10:31:03;11.65;;;8.00;;
20705;SDS011;10514;49.468;11.044;2023-07-24T10:33:48;10.98;;;6.60;;
20705;SDS011;10514;49.468;11.044;2023-07-24T10:36:20;11.40;;;7.28;;
20705;SDS011;10514;49.468;11.044;2023-07-24T10:38:54;13.10;;;7.45;;
20705;SDS011;10514;49.468;11.044;2023-07-24T10:41:21;11.65;;;7.15;;
20705;SDS011;10514;49.468;11.044;2023-07-24T10:43:48;12.43;;;7.82;;
20705;SDS011;10514;49.468;11.044;2023-07-24T10:46:16;13.48;;;8.73;;
20705;SDS011;10514;49.468;11.044;2023-07-24T10:48:47;12.10;;;7.70;;
20705;SDS011;10514;49.468;11.044;2023-07-24T10:51:15;11.82;;;7.30;;
20705;SDS011;10514;49.468;11.044;2023-07-24T10:53:43;17.13;;;9.75;;
20705;SDS011;10514;49.468;11.044;2023-07-24T10:56:09;11.93;;;7.82;;
20705;SDS011;10514;49.468;11.044;2023-07-24T10:58:35;14.85;;;8.35;;
20705;SDS011;10514;49.468;11.044;2023-07-24T11:01:05;13.88;;;7.50;;
20705;SDS011;10514;49.468;11.044;2023-07-24T11:03:32;11.23;;;7.85;;
20705;SDS011;10514;49.468;11.044;2023-07-24T11:05:58;15.63;;;7.90;;
20705;SDS011;10514;49.468;11.044;2023-07-24T11:08:24;14.02;;;8.15;;
20705;SDS011;10514;49.468;11.044;2023-07-24T11:13:16;13.82;;;9.40;;
20705;SDS011;10514;49.468;11.044;2023-07-24T11:15:42;13.27;;;7.70;;
20705;SDS011;10514;49.468;11.044;2023-07-24T11:18:08;12.90;;;7.20;;
20705;SDS011;10514;49.468;11.044;2023-07-24T11:20:38;14.80;;;8.68;;
20705;SDS011;10514;49.468;11.044;2023-07-24T11:23:14;12.68;;;8.05;;
20705;SDS011;10514;49.468;11.044;2023-07-24T11:25:40;11.68;;;8.65;;
20705;SDS011;10514;49.468;11.044;2023-07-24T11:28:07;12.55;;;8.25;;
20705;SDS011;10514;49.468;11.044;2023-07-24T11:30:33;11.57;;;8.20;;
20705;SDS011;10514;49.468;11.044;2023-07-24T11:33:00;14.00;;;8.25;;
20705;SDS011;10514;49.468;11.044;2023-07-24T11:35:27;12.32;;;8.25;;
20705;SDS011;10514;49.468;11.044;2023-07-24T11:37:53;13.52;;;8.63;;
20705;SDS011;10514;49.468;11.044;2023-07-24T11:40:19;11.52;;;7.82;;
20705;SDS011;10514;49.468;11.044;2023-07-24T11:42:45;16.83;;;8.30;;
20705;SDS011;10514;49.468;11.044;2023-07-24T11:45:12;14.05;;;8.32;;
20705;SDS011;10514;49.468;11.044;2023-07-24T11:47:41;13.07;;;8.75;;
20705;SDS011;10514;49.468;11.044;2023-07-24T11:50:07;11.38;;;8.10;;
20705;SDS011;10514;49.468;11.044;2023-07-24T11:52:47;13.20;;;7.75;;
20705;SDS011;10514;49.468;11.044;2023-07-24T11:55:18;17.55;;;8.38;;
20705;SDS011;10514;49.468;11.044;2023-07-24T11:57:55;11.75;;;7.85;;
20705;SDS011;10514;49.468;11.044;2023-07-24T12:00:21;10.95;;;6.45;;
20705;SDS011;10514;49.468;11.044;2023-07-24T12:02:48;13.52;;;8.10;;
20705;SDS011;10514;49.468;11.044;2023-07-24T12:05:14;12.65;;;7.68;;
20705;SDS011;10514;49.468;11.044;2023-07-24T12:07:42;12.70;;;7.43;;
20705;SDS011;10514;49.468;11.044;2023-07-24T12:10:11;12.27;;;7.57;;
20705;SDS011;10514;49.468;11.044;2023-07-24T12:12:44;13.32;;;7.78;;
20705;SDS011;10514;49.468;11.044;2023-07-24T12:15:11;11.32;;;7.57;;
20705;SDS011;10514;49.468;11.044;2023-07-24T12:17:38;10.07;;;6.00;;
20705;SDS011;10514;49.468;11.044;2023-07-24T12:20:04;9.93;;;5.40;;
20705;SDS011;10514;49.468;11.044;2023-07-24T12:22:34;12.68;;;5.43;;
20705;SDS011;10514;49.468;11.044;2023-07-24T12:25:01;8.20;;;4.68;;
20705;SDS011;10514;49.468;11.044;2023-07-24T12:27:27;6.72;;;4.88;;
20705;SDS011;10514;49.468;11.044;2023-07-24T12:29:53;9.57;;;5.07;;
20705;SDS011;10514;49.468;11.044;2023-07-24T12:32:19;10.32;;;4.85;;
20705;SDS011;10514;49.468;11.044;2023-07-24T12:34:46;6.93;;;4.60;;
20705;SDS011;10514;49.468;11.044;2023-07-24T12:37:12;11.05;;;5.15;;
20705;SDS011;10514;49.468;11.044;2023-07-24T12:39:38;7.95;;;5.18;;
20705;SDS011;10514;49.468;11.044;2023-07-24T12:42:04;8.23;;;4.97;;
20705;SDS011;10514;49.468;11.044;2023-07-24T12:44:31;7.10;;;4.72;;
20705;SDS011;10514;49.468;11.044;2023-07-24T12:46:56;9.45;;;5.00;;
20705;SDS011;10514;49.468;11.044;2023-07-24T12:49:22;7.47;;;4.72;;
20705;SDS011;10514;49.468;11.044;2023-07-24T12:51:48;7.63;;;3.92;;
20705;SDS011;10514;49.468;11.044;2023-07-24T12:54:14;7.18;;;4.47;;
20705;SDS011;10514;49.468;11.044;2023-07-24T12:56:47;9.90;;;4.43;;
20705;SDS011;10514;49.468;11.044;2023-07-24T12:59:13;9.88;;;5.35;;
20705;SDS011;10514;49.468;11.044;2023-07-24T13:01:39;7.88;;;5.20;;
20705;SDS011;10514;49.468;11.044;2023-07-24T13:04:05;8.13;;;5.10;;
20705;SDS011;10514;49.468;11.044;2023-07-24T13:06:31;10.18;;;6.00;;
20705;SDS011;10514;49.468;11.044;2023-07-24T13:08:57;8.15;;;5.15;;
20705;SDS011;10514;49.468;11.044;2023-07-24T13:11:23;11.57;;;5.40;;
20705;SDS011;10514;49.468;11.044;2023-07-24T13:13:49;7.50;;;5.93;;
20705;SDS011;10514;49.468;11.044;2023-07-24T13:16:15;8.18;;;5.63;;
20705;SDS011;10514;49.468;11.044;2023-07-24T13:18:41;9.48;;;5.80;;
20705;SDS011;10514;49.468;11.044;2023-07-24T13:21:07;11.20;;;5.97;;
20705;SDS011;10514;49.468;11.044;2023-07-24T13:23:33;8.43;;;5.05;;
20705;SDS011;10514;49.468;11.044;2023-07-24T13:25:59;8.07;;;5.15;;
20705;SDS011;10514;49.468;11.044;2023-07-24T13:28:25;7.35;;;5.32;;
20705;SDS011;10514;49.468;11.044;2023-07-24T13:30:51;7.90;;;5.30;;
20705;SDS011;10514;49.468;11.044;2023-07-24T13:33:17;7.28;;;5.07;;
20705;SDS011;10514;49.468;11.044;2023-07-24T13:35:44;10.40;;;4.70;;
20705;SDS011;10514;49.468;11.044;2023-07-24T13:38:10;8.00;;;5.30;;
20705;SDS011;10514;49.468;11.044;2023-07-24T13:40:37;8.57;;;5.28;;
20705;SDS011;10514;49.468;11.044;2023-07-24T13:43:03;7.68;;;5.03;;
20705;SDS011;10514;49.468;11.044;2023-07-24T13:45:29;8.00;;;5.20;;
20705;SDS011;10514;49.468;11.044;2023-07-24T13:47:56;8.23;;;5.57;;
20705;SDS011;10514;49.468;11.044;2023-07-24T13:50:22;6.65;;;5.15;;
20705;SDS011;10514;49.468;11.044;2023-07-24T13:52:48;7.00;;;4.80;;
20705;SDS011;10514;49.468;11.044;2023-07-24T13:55:14;8.13;;;4.82;;
20705;SDS011;10514;49.468;11.044;2023-07-24T13:57:40;7.80;;;5.10;;
20705;SDS011;10514;49.468;11.044;2023-07-24T14:00:06;9.02;;;4.70;;
20705;SDS011;10514;49.468;11.044;2023-07-24T14:02:32;8.27;;;4.72;;
20705;SDS011;10514;49.468;11.044;2023-07-24T14:04:58;6.72;;;4.93;;
20705;SDS011;10514;49.468;11.044;2023-07-24T14:07:24;7.18;;;4.97;;
20705;SDS011;10514;49.468;11.044;2023-07-24T14:09:50;6.28;;;4.30;;
20705;SDS011;10514;49.468;11.044;2023-07-24T14:12:15;7.72;;;4.90;;
20705;SDS011;10514;49.468;11.044;2023-07-24T14:14:41;6.32;;;5.20;;
20705;SDS011;10514;49.468;11.044;2023-07-24T14:17:07;8.48;;;5.15;;
20705;SDS011;10514;49.468;11.044;2023-07-24T14:19:33;9.95;;;5.07;;
20705;SDS011;10514;49.468;11.044;2023-07-24T14:21:59;8.45;;;5.25;;
20705;SDS011;10514;49.468;11.044;2023-07-24T14:24:26;6.80;;;4.22;;
20705;SDS011;10514;49.468;11.044;2023-07-24T14:26:55;7.00;;;4.78;;